createdAt,value
2022-08-26T00:00:21.586Z,15.89
2022-08-26T00:05:25.960Z,15.85
2022-08-26T00:10:29.653Z,15.78
2022-08-26T00:15:32.901Z,15.74
2022-08-26T00:20:36.291Z,15.63
2022-08-26T00:25:42.565Z,15.57
2022-08-26T00:30:48.916Z,15.62
2022-08-26T00:35:54.761Z,15.54
2022-08-26T00:40:58.748Z,15.50
2022-08-26T00:46:13.140Z,15.31
2022-08-26T00:51:20.653Z,15.38
2022-08-26T00:56:42.258Z,15.38
2022-08-26T01:01:46.081Z,15.40
2022-08-26T01:06:54.491Z,15.36
2022-08-26T01:12:01.722Z,15.12
2022-08-26T01:17:07.197Z,15.06
2022-08-26T01:22:33.509Z,15.09
2022-08-26T01:27:37.581Z,14.96
2022-08-26T01:32:41.370Z,15.03
2022-08-26T01:37:45.661Z,14.98
2022-08-26T01:42:49.970Z,15.02
2022-08-26T01:47:56.899Z,15.02
2022-08-26T01:53:03.801Z,14.98
2022-08-26T01:58:14.709Z,14.92
2022-08-26T02:03:19.269Z,14.90
2022-08-26T02:08:36.745Z,14.86
2022-08-26T02:13:47.330Z,14.86
2022-08-26T02:18:53.349Z,14.84
2022-08-26T02:23:57.744Z,14.83
2022-08-26T02:29:06.080Z,14.83
2022-08-26T02:34:16.350Z,14.79
2022-08-26T02:39:22.247Z,14.75
2022-08-26T02:44:26.550Z,14.69
2022-08-26T02:49:31.233Z,14.78
2022-08-26T02:54:34.284Z,14.78
2022-08-26T02:59:39.969Z,14.76
2022-08-26T03:04:57.836Z,14.77
2022-08-26T03:10:08.438Z,14.73
2022-08-26T03:15:17.635Z,14.75
2022-08-26T03:20:21.390Z,14.80
2022-08-26T03:25:26.487Z,14.75
2022-08-26T03:30:45.053Z,14.73
2022-08-26T03:35:50.522Z,14.72
2022-08-26T03:40:56.313Z,14.69
2022-08-26T03:46:04.784Z,14.67
2022-08-26T03:51:18.262Z,14.65
2022-08-26T03:56:22.243Z,14.59
2022-08-26T04:01:25.585Z,14.53
2022-08-26T04:06:39.672Z,14.57
2022-08-26T04:11:45.138Z,14.63
2022-08-26T04:16:51.615Z,14.62
2022-08-26T04:21:55.226Z,14.62
2022-08-26T04:26:58.659Z,14.67
2022-08-26T04:32:03.854Z,14.72
2022-08-26T04:37:08.550Z,14.84
2022-08-26T04:42:14.157Z,14.78
2022-08-26T04:47:17.369Z,14.80
2022-08-26T04:52:22.717Z,14.96
2022-08-26T04:57:25.976Z,15.10
2022-08-26T05:02:29.284Z,15.23
2022-08-26T05:07:32.355Z,15.47
2022-08-26T05:12:36.722Z,15.67
2022-08-26T05:17:41.023Z,15.75
2022-08-26T05:22:44.930Z,15.85
2022-08-26T05:27:48.669Z,15.88
2022-08-26T05:32:55.202Z,15.97
2022-08-26T05:38:03.432Z,16.20
2022-08-26T05:43:11.232Z,16.35
2022-08-26T05:48:17.628Z,16.56
2022-08-26T05:53:26.017Z,16.73
2022-08-26T05:58:29.680Z,16.91
2022-08-26T06:03:36.546Z,17.18
2022-08-26T06:08:39.825Z,17.21
2022-08-26T06:13:43.021Z,17.51
2022-08-26T06:18:48.830Z,17.76
2022-08-26T06:24:16.213Z,17.88
2022-08-26T06:29:24.071Z,17.91
2022-08-26T06:34:30.292Z,17.98
2022-08-26T06:39:34.206Z,18.29
2022-08-26T06:44:37.810Z,18.57
2022-08-26T06:49:44.399Z,18.90
2022-08-26T06:54:47.776Z,19.04
2022-08-26T06:59:51.422Z,19.15
2022-08-26T07:04:56.853Z,19.28
2022-08-26T07:10:00.940Z,19.24
2022-08-26T07:15:05.173Z,19.52
2022-08-26T07:20:09.905Z,19.92
2022-08-26T07:25:15.726Z,20.16
2022-08-26T07:30:19.218Z,20.21
2022-08-26T07:35:23.662Z,20.55
2022-08-26T07:40:26.972Z,20.87
2022-08-26T07:45:30.630Z,21.31
2022-08-26T07:50:49.133Z,21.38
2022-08-26T07:55:53.803Z,21.83
2022-08-26T08:00:57.357Z,22.05
2022-08-26T08:06:02.010Z,21.61
2022-08-26T08:11:05.458Z,21.86
2022-08-26T08:16:12.736Z,21.92
2022-08-26T08:21:22.155Z,22.12
2022-08-26T08:26:27.684Z,22.10
2022-08-26T08:31:55.718Z,22.59
2022-08-26T08:36:58.504Z,23.07
2022-08-26T08:42:16.850Z,23.17
2022-08-26T08:47:36.704Z,23.24
2022-08-26T08:52:42.424Z,23.09
2022-08-26T08:58:07.893Z,23.62
2022-08-26T09:03:25.276Z,24.17
2022-08-26T09:08:33.498Z,25.11
2022-08-26T09:13:39.354Z,24.80
2022-08-26T09:19:11.901Z,24.62
2022-08-26T09:24:14.997Z,24.63
2022-08-26T09:29:27.503Z,24.61
2022-08-26T09:34:30.790Z,24.25
2022-08-26T09:39:38.945Z,24.09
2022-08-26T09:44:57.495Z,24.08
2022-08-26T09:50:12.703Z,23.62
2022-08-26T09:55:22.995Z,23.56
2022-08-26T10:00:34.462Z,23.39
2022-08-26T10:05:58.250Z,23.35
2022-08-26T10:11:05.257Z,23.09
2022-08-26T10:16:57.219Z,23.28
2022-08-26T10:22:08.349Z,23.33
2022-08-26T10:27:35.362Z,22.99
2022-08-26T10:32:42.361Z,23.25
2022-08-26T10:38:11.267Z,23.46
2022-08-26T10:43:25.706Z,23.72
2022-08-26T10:48:35.529Z,23.85
2022-08-26T10:53:56.634Z,23.81
2022-08-26T10:59:19.707Z,23.95
2022-08-26T11:04:56.449Z,24.15
2022-08-26T11:10:01.891Z,24.39
2022-08-26T11:15:12.074Z,24.61
2022-08-26T11:20:41.831Z,24.63
2022-08-26T11:25:57.583Z,24.80
2022-08-26T11:31:01.174Z,25.00
2022-08-26T11:36:11.488Z,25.04
2022-08-26T11:41:22.273Z,25.24
2022-08-26T11:46:37.071Z,25.63
2022-08-26T11:51:42.552Z,26.03
2022-08-26T11:56:52.614Z,25.95
2022-08-26T12:01:58.924Z,26.01
2022-08-26T12:07:10.608Z,26.16
2022-08-26T12:12:52.923Z,26.38
2022-08-26T12:18:34.779Z,26.36
2022-08-26T12:24:10.932Z,25.89
2022-08-26T12:49:24.869Z,26.03
2022-08-26T12:55:05.057Z,26.71
2022-08-26T13:06:43.325Z,26.46
2022-08-26T13:19:10.218Z,26.16
2022-08-26T13:32:01.928Z,27.39
2022-08-26T13:37:24.382Z,27.75
2022-08-26T13:49:44.436Z,27.06
2022-08-26T13:55:30.980Z,28.01
2022-08-26T14:02:10.720Z,27.85
2022-08-26T14:08:16.676Z,28.17
2022-08-26T14:13:59.112Z,28.39
2022-08-26T14:19:25.627Z,28.02
2022-08-26T14:24:41.199Z,27.88
2022-08-26T14:30:12.152Z,27.92
2022-08-26T14:35:39.909Z,27.39
2022-08-26T14:40:47.036Z,27.63
2022-08-26T14:45:50.055Z,27.93
2022-08-26T14:50:53.184Z,27.84
2022-08-26T14:55:56.325Z,27.18
2022-08-26T15:01:00.980Z,27.49
2022-08-26T15:06:08.159Z,26.82
2022-08-26T15:11:11.903Z,26.54
2022-08-26T15:16:15.455Z,26.67
2022-08-26T15:34:03.861Z,26.40
2022-08-26T15:52:17.192Z,25.13
2022-08-26T16:11:05.107Z,25.35
2022-08-26T16:17:23.145Z,25.32
2022-08-26T17:05:27.530Z,23.62
2022-08-26T17:28:56.049Z,21.77
2022-08-26T17:34:04.881Z,21.73
2022-08-26T17:39:08.094Z,21.49
2022-08-26T17:44:11.784Z,21.07
2022-08-26T17:49:15.270Z,21.10
2022-08-26T17:54:19.863Z,20.88
2022-08-26T17:59:22.928Z,20.70
2022-08-26T18:04:35.204Z,20.62
2022-08-26T18:09:38.303Z,20.57
2022-08-26T18:14:41.551Z,20.50
2022-08-26T18:19:47.749Z,20.28
2022-08-26T18:24:58.664Z,19.99
2022-08-26T18:30:04.883Z,19.92
2022-08-26T18:35:09.273Z,20.00
2022-08-26T18:40:15.002Z,20.01
2022-08-26T18:45:18.528Z,20.25
2022-08-26T18:50:21.980Z,20.25
2022-08-26T18:55:25.673Z,20.16
2022-08-26T19:00:28.842Z,20.34
2022-08-26T19:05:32.028Z,20.46
2022-08-26T19:18:10.817Z,20.68
2022-08-26T19:23:38.096Z,20.60
2022-08-26T19:34:41.706Z,20.34
2022-08-26T19:39:45.073Z,20.09
2022-08-26T19:45:25.107Z,19.97
2022-08-26T19:50:38.020Z,19.73
2022-08-26T19:55:43.845Z,19.49
2022-08-26T20:00:47.303Z,19.38
2022-08-26T20:05:50.399Z,18.99
2022-08-26T20:10:53.499Z,19.02
2022-08-26T20:15:56.580Z,18.86
2022-08-26T20:21:18.514Z,18.72
2022-08-26T20:26:23.599Z,18.46
2022-08-26T20:31:27.626Z,18.28
2022-08-26T20:36:32.147Z,18.37
2022-08-26T20:41:36.321Z,18.44
2022-08-26T20:46:41.255Z,18.39
2022-08-26T20:51:45.384Z,18.42
2022-08-26T20:56:48.725Z,18.10
2022-08-26T21:01:54.134Z,18.16
2022-08-26T21:06:57.205Z,18.20
2022-08-26T21:12:00.336Z,18.30
2022-08-26T21:17:04.688Z,18.19
2022-08-26T21:22:07.800Z,17.93
2022-08-26T21:27:11.119Z,17.81
2022-08-26T21:32:15.731Z,17.59
2022-08-26T21:37:19.115Z,17.45
2022-08-26T21:42:23.272Z,17.18
2022-08-26T21:47:26.704Z,16.92
2022-08-26T21:52:29.972Z,16.91
2022-08-26T21:57:34.485Z,17.00
2022-08-26T22:02:38.092Z,16.87
2022-08-26T22:07:41.495Z,16.67
2022-08-26T22:12:44.775Z,16.58
2022-08-26T22:17:47.924Z,16.69
2022-08-26T22:22:51.213Z,16.67
2022-08-26T22:27:56.905Z,16.57
2022-08-26T22:33:00.211Z,16.73
2022-08-26T22:38:03.369Z,16.94
2022-08-26T22:43:06.704Z,16.87
2022-08-26T22:48:11.423Z,16.87
2022-08-26T22:53:16.397Z,17.07
2022-08-26T22:58:20.375Z,17.03
2022-08-26T23:03:26.539Z,17.07
2022-08-26T23:08:29.849Z,16.89
2022-08-26T23:13:33.148Z,16.59
2022-08-26T23:18:37.035Z,16.65
2022-08-26T23:23:42.950Z,16.55
2022-08-26T23:28:48.928Z,16.70
2022-08-26T23:34:11.147Z,16.84
2022-08-26T23:39:16.013Z,16.87
2022-08-26T23:44:20.475Z,16.78
2022-08-26T23:49:24.863Z,16.55
2022-08-26T23:54:28.513Z,16.68
2022-08-26T23:59:33.354Z,16.76
